WEATHER DATA

YESTERDAY
Time Temp. Dewp. Hum. Bar. 1h Prec. 24h Prec.
00:03 5.7 5.3 97 1008.6 0.0000 0.0000
00:13 5.7 5.4 98 1008.6 0.0000 0.0000
00:22 5.6 5.3 98 1008.5 0.0000 0.0000
00:33 5.5 5.2 98 1008.4 0.0000 0.0000
00:43 5.4 5.1 98 1008.3 0.0000 0.0000
00:53 5.2 4.9 98 1008.1 0.0000 0.0000
01:03 5.1 4.8 98 1008 0.0000 0.0000
01:14 5 4.7 98 1007.8 0.0000 0.0000
01:23 4.9 4.6 98 1007.6 0.0000 0.0000
01:33 4.8 4.5 98 1007.6 0.0000 0.0000
01:44 4.7 4.4 98 1007.4 0.0000 0.0000
01:54 4.7 4.4 98 1007.3 0.0000 0.0000
02:04 4.7 4.4 98 1007.2 0.0000 0.0000
02:14 4.6 4.3 98 1007 0.0000 0.0000
02:25 4.5 4.2 98 1006.7 0.0000 0.0000
02:34 4.4 4.1 98 1006.6 0.0000 0.0000
02:44 4.4 4.1 98 1006.5 0.0000 0.0000
02:54 4.4 4.1 98 1006.4 0.0000 0.0000
03:05 4.3 4 98 1006.3 0.0000 0.0000
03:15 4.4 4.1 98 1006.2 0.0000 0.0000
03:25 4.6 4.3 98 1005.8 0.0000 0.0000
03:36 4.8 4.5 98 1005.6 0.0000 0.0000
03:45 4.9 4.6 98 1005.4 0.0000 0.0000
03:55 5.1 4.7 97 1005.1 0.0000 0.0000
04:05 5.2 4.8 97 1004.9 0.0000 0.0000
04:16 5.4 5 97 1004.6 0.0000 0.0000
04:36 5.8 5.4 97 1004 0.0000 0.0000
04:46 6.1 5.5 96 1003.9 0.0000 0.0000
04:56 6.3 5.7 96 1003.7 0.0000 0.0000
05:06 6.5 5.8 95 1003.4 0.0000 0.0000
05:16 6.6 5.7 94 1003.3 0.0000 0.0000
05:27 6.5 5.6 94 1003.2 0.0000 0.0000
05:37 6.6 5.7 94 1002.7 0.0000 0.0000
05:47 6.7 5.8 94 1002.3 0.0000 0.0000
05:56 6.8 5.7 93 1002.2 0.0000 0.0000
06:07 6.9 5.8 93 1002 0.0000 0.0000
06:17 7 5.9 93 1001.8 0.0000 0.0000
06:27 7.2 6 92 1001.6 0.0000 0.0000
06:38 7.4 6.2 92 1001.4 0.0000 0.0000
06:48 7.5 6.1 91 1001.1 0.0000 0.0000
06:57 7.7 6.3 91 1000.9 0.0000 0.0000
07:07 7.9 6.4 90 1000.9 0.0000 0.0000
07:18 8.1 6.6 90 1000.9 0.0000 0.0000
07:34 8.1 6.7 91 1001.8 0.3030 0.3030
07:43 8 8 100 1001.9 2.0200 2.0200
07:54 7.8 7.8 100 1001.9 2.0200 2.0200
08:04 7.7 7.7 100 1001.6 2.4240 2.4240
08:14 7.5 7.5 100 1001.5 3.3330 3.3330
08:24 7.4 7.4 100 1001.3 4.9490 4.9490
08:35 7.3 7.3 100 1001.2 3.9390 5.9590
08:54 7.4 7.4 100 1000.7 3.9390 5.9590
09:04 7.5 7.5 100 1000.6 3.5350 5.9590
09:15 7.6 7.6 100 1000.4 2.6260 5.9590
09:25 7.7 7.7 100 1000.5 1.0100 5.9590
09:35 7.8 7.8 100 1000.6 0.0000 5.9590
09:45 8 8 100 1000.5 0.0000 5.9590
09:56 8 8 100 1000.6 0.0000 5.9590
10:15 8.2 8.2 100 1000.7 0.0000 5.9590
10:26 8.3 8.3 100 1000.8 0.0000 5.9590
10:36 8.3 8.3 100 1000.6 0.0000 5.9590
10:46 8.4 8.4 100 1000.8 0.0000 5.9590
10:56 8.4 8.4 100 1000.7 0.0000 5.9590
11:06 8.4 8.4 100 1000.7 0.1010 6.0600
11:16 8.4 8.4 100 1000.7 0.1010 6.0600
11:26 8.5 8.5 100 1000.8 0.1010 6.0600
11:37 8.5 8.5 100 1000.8 0.1010 6.0600
11:47 8.6 8.6 100 1000.9 0.1010 6.0600
11:56 8.7 8.7 100 1001 0.0000 6.0600
12:06 8.9 8.9 100 1001.1 0.0000 6.0600
12:17 9.1 9.1 100 1001.2 0.0000 6.0600
12:27 9.2 9.2 100 1001.4 0.0000 6.0600
12:37 9.3 9.3 100 1001.4 0.0000 6.0600
12:47 9.6 9.6 100 1001.6 0.0000 6.0600
12:58 9.8 9.8 100 1001.5 0.0000 6.0600
13:07 10 10 100 1001.6 0.0000 6.0600
13:17 10.3 10.3 100 1001.6 0.0000 6.0600
13:28 10.4 10.4 100 1001.6 0.0000 6.0600
13:38 10.5 10.5 100 1001.8 0.0000 6.0600
13:48 10.7 10.7 100 1001.9 0.0000 6.0600
13:58 10.8 10.8 100 1002.1 0.0000 6.0600
14:08 11 11 100 1002.1 0.0000 6.0600
14:18 11.1 11.1 100 1002.1 0.0000 6.0600
14:28 11.3 11.1 99 1002 0.0000 6.0600
14:39 11.3 11 98 1002.2 0.0000 6.0600
14:48 11.5 11.2 98 1002.3 0.0000 6.0600
14:58 11.7 11.1 96 1002.4 0.0000 6.0600
15:08 12 11.1 94 1002.3 0.0000 6.0600
15:19 12.3 11 92 1002.3 0.0000 6.0600
15:29 12.4 10.6 89 1002.3 0.0000 6.0600
15:38 12.3 10.5 89 1002.3 0.0000 6.0600
15:49 12.3 10.7 90 1002.2 0.0000 6.0600
15:59 12.1 10.3 89 1002.1 0.0000 6.0600
16:09 12 10.2 89 1002.1 0.0000 6.0600
16:19 11.9 10.1 89 1002 0.0000 6.0600
16:30 12 10.2 89 1002 0.0000 6.0600
16:39 12.2 10.4 89 1002.1 0.0000 6.0600
16:49 12.3 10.5 89 1002.1 0.0000 6.0600
17:00 12.3 10.5 89 1002.2 0.0000 6.0600
17:10 12.3 10.4 88 1002.1 0.0000 6.0600
17:20 12.3 10.2 87 1002.2 0.0000 6.0600
17:29 12.1 9.8 86 1002.3 0.0000 6.0600
17:40 12.1 10 87 1002.3 0.0000 6.0600
17:50 11.9 9.8 87 1002.3 0.0000 6.0600
18:00 11.7 9.6 87 1002.4 0.0000 6.0600
18:10 11.6 9.5 87 1002.3 0.0000 6.0600
18:20 11.5 9.4 87 1002.3 0.0000 6.0600
18:30 11.5 9.6 88 1002.3 0.0000 6.0600
18:40 11.4 9.3 87 1002.3 0.0000 6.0600
18:51 11.3 9.2 87 1002.2 0.0000 6.0600
19:00 11.1 9 87 1002.2 0.0000 6.0600
19:10 11 8.9 87 1002.3 0.0000 6.0600
19:21 10.8 8.6 86 1002.2 0.0000 6.0600
19:31 10.7 8.6 87 1002.2 0.0000 6.0600
19:41 10.4 8.2 86 1002.2 0.0000 6.0600
19:50 10.3 8.2 87 1002.2 0.0000 6.0600
20:01 10.1 8 87 1002.2 0.0000 6.0600
20:11 10 8.1 88 1002.3 0.0000 6.0600
20:21 9.9 8 88 1002.2 0.0000 6.0600
20:31 9.8 8.1 89 1002.3 0.0000 6.0600
20:41 9.7 8 89 1002.4 0.0000 6.0600
20:51 9.6 8 90 1002.4 0.0000 6.0600
21:01 9.5 7.9 90 1002.5 0.0000 6.0600
21:12 9.4 8 91 1002.5 0.0000 6.0600
21:22 9.3 7.9 91 1002.5 0.0000 6.0600
21:31 9.2 8 92 1002.6 0.0000 6.0600
21:42 9.1 7.9 92 1002.6 0.0000 6.0600
21:52 9 7.8 92 1002.7 0.0000 6.0600
22:02 8.9 7.7 92 1002.5 0.0000 6.0600
22:12 8.8 7.6 92 1002.4 0.0000 6.0600
22:22 8.7 7.6 93 1002.4 0.0000 6.0600
22:32 8.6 7.5 93 1002.4 0.0000 6.0600
22:42 8.6 7.5 93 1002.4 0.0000 6.0600
22:52 8.5 7.6 94 1002.5 0.0000 6.0600
23:03 8.5 7.6 94 1002.5 0.0000 6.0600
23:12 8.4 7.5 94 1002.6 0.0000 6.0600
23:22 8.4 7.5 94 1002.6 0.0000 6.0600
23:33 8.3 7.4 94 1002.7 0.0000 6.0600
23:43 8.2 7.4 95 1002.7 0.0000 6.0600
23:53 8.1 7.3 95 1002.7 0.0000 6.0600

DAY STATISTIC

2018-04-23
TEMPERATURE
AVERAGE
8.6
HIGH
12.4
15:29
LOW
4.3
03:05
PRESSURE
AVERAGE
1002.9
HIGH
1008.6
00:03
LOW
1000.4
09:15
DEWPOINT
AVERAGE
7.7
HIGH
11.2
14:48
LOW
4.0
03:05
HUMIDITY
AVERAGE
95
HIGH
100
07:43
LOW
86
17:29
PRECIPITATION
RAIN HOUR
4.9
RAIN DAY
6.1
TEMPERATURE (°C)
LOW
4.3
HIGH
12.4
AVERAGE
8.6
PRESSURE (hpa)
LOW
1000.4
HIGH
1008.6
AVERAGE
1002.9
DEVICE